Jerome, FL (34141)

4:43 AM EDT on August 28, 2016 (GMT -0400)
APRSWXNET | | Change Station

Elev 3 ft 25.96 °N, 81.51 °W | Updated 40 minutes ago

Clear
Clear
77 °F
Feels Like 78 °F
N
0
Wind Variable Wind from NNW
Gusts 1.0 mph

Today
High -- | Low -- °F
--% Chance of Precip.
Yesterday
High -- | Low -- °F
Precip. -- in
Pressure 29.88 in
Visibility 10.0 miles
Clouds Clear
Heat Index 78 °F
Dew Point 76 °F
Humidity 97%
Rainfall in
Snow Depth Not available.
7:03 AM 7:48 PM
Waning Crescent, 17% visible
METAR KAPF 280753Z 06006KT 10SM CLR 26/25 A2988 RMK AO2 SLP117 T02560250
Pressure 29.88 in
Visibility 10.0 miles
Clouds Clear
Heat Index 78 °F
Dew Point 76 °F
Humidity 97%
Rainfall in
Snow Depth Not available.
7:03 AM 7:48 PM
Waning Crescent, 17% visible
METAR KAPF 280753Z 06006KT 10SM CLR 26/25 A2988 RMK AO2 SLP117 T02560250

10-Day Weather Forecast

Almanac

Astronomy

Aug. 28, 2016 Rise Set
Actual Time
Civil Twilight
Nautical Twilight
Astronomical Twilight
Moon
Length of Visible Light
Length of Day
Tomorrow will be .
, % of the Moon is Illuminated

Today's Extremes

State Highs State Lows

Community

WunderPhotos

Upload Photos

1,935,540 photos uploaded!

WunderBlog® & News

Nearby

Air Quality

  Air Quality AQ Index Pollutant
Not available.

Snow Depth

Station Depth Elevation

Earthquake Activity

City Distance Mag. Time & Date
Minimum magnitude displayed is 2.5.

Coastal Water Temperatures

Place Temperature

Stations

Nearby Weather Stations

Station Location Temp. Windchill Dew Point Humidity Wind Precip. Elev Updated Type
                   

Watches & Warnings

There are currently no watches in effect.